createdAt,value
2018-04-19T19:56:53.502Z,1.60
2018-04-19T19:59:21.146Z,1.92
2018-04-19T20:01:48.641Z,1.80
2018-04-19T20:04:16.245Z,1.80
2018-04-19T20:06:43.909Z,1.85
2018-04-19T20:09:11.565Z,1.90
2018-04-19T20:11:39.080Z,1.58
2018-04-19T20:14:06.617Z,2.47
2018-04-19T20:16:34.121Z,2.50
2018-04-19T20:19:01.636Z,1.95
2018-04-19T20:21:29.165Z,1.92
2018-04-19T20:23:56.681Z,2.28
2018-04-19T20:26:24.213Z,1.95
2018-04-19T20:28:51.717Z,2.00
2018-04-19T20:31:19.237Z,2.47
2018-04-19T20:33:46.951Z,2.03
2018-04-19T20:36:14.581Z,2.03
2018-04-19T20:38:42.248Z,2.10
2018-04-19T20:41:09.912Z,2.33
2018-04-19T20:43:37.413Z,2.15
2018-04-19T20:46:05.027Z,2.10
2018-04-19T20:48:32.563Z,2.30
2018-04-19T20:51:00.085Z,1.92
2018-04-19T20:53:27.785Z,2.40
2018-04-19T20:55:55.334Z,2.05
2018-04-19T20:58:22.855Z,2.55
2018-04-19T21:00:50.385Z,2.17
2018-04-19T21:03:17.883Z,2.20
2018-04-19T21:05:45.816Z,2.08
2018-04-19T21:08:13.334Z,2.00
2018-04-19T21:10:40.841Z,2.03
2018-04-19T21:13:08.365Z,2.07
2018-04-19T21:15:35.879Z,1.73
2018-04-19T21:18:03.442Z,1.93
2018-04-19T21:20:31.012Z,2.23
2018-04-19T21:22:58.542Z,2.20
2018-04-19T21:25:26.529Z,1.95
2018-04-19T21:27:54.056Z,2.25
2018-04-19T21:30:21.958Z,2.30
2018-04-19T21:32:49.489Z,2.58
2018-04-19T21:35:17.179Z,2.35
2018-04-19T21:37:44.705Z,2.40
2018-04-19T21:40:12.613Z,2.90
2018-04-19T21:42:40.146Z,2.97
2018-04-19T21:45:07.801Z,2.67
2018-04-19T21:47:35.452Z,2.57
2018-04-19T21:50:03.130Z,2.40
2018-04-19T21:52:30.657Z,2.23
2018-04-19T21:54:58.267Z,2.80
2018-04-19T21:57:25.769Z,2.83
2018-04-19T21:59:53.292Z,2.63
2018-04-19T22:02:20.806Z,2.30
2018-04-19T22:04:48.345Z,2.83
2018-04-19T22:07:15.859Z,2.60
2018-04-19T22:09:43.390Z,2.67
2018-04-19T22:12:11.032Z,2.23
2018-04-19T22:14:38.737Z,2.67
2018-04-19T22:17:06.212Z,2.80
2018-04-19T22:19:34.125Z,2.40
2018-04-19T22:22:01.666Z,2.70
2018-04-19T22:24:29.193Z,2.93
2018-04-19T22:26:57.173Z,2.50
2018-04-19T22:29:24.835Z,2.93
2018-04-19T22:31:52.335Z,2.23
2018-04-19T22:34:19.955Z,2.73
2018-04-19T22:36:47.460Z,2.77
2018-04-19T22:39:14.971Z,2.57
2018-04-19T22:41:42.493Z,2.37
2018-04-19T22:44:10.184Z,2.43
2018-04-19T22:46:37.848Z,2.60
2018-04-19T22:49:05.349Z,3.00
2018-04-19T22:51:32.873Z,4.10
2018-04-19T22:54:00.373Z,4.33
2018-04-19T22:56:27.889Z,4.23
2018-04-19T22:58:55.385Z,4.90
2018-04-19T23:01:23.293Z,4.33
2018-04-19T23:03:50.865Z,4.30
2018-04-19T23:06:18.397Z,3.93
2018-04-19T23:08:45.892Z,4.13
2018-04-19T23:11:13.614Z,4.20
2018-04-19T23:13:41.137Z,3.80
2018-04-19T23:16:09.075Z,4.20
2018-04-19T23:18:36.706Z,4.57
2018-04-19T23:21:04.229Z,4.50
2018-04-19T23:23:31.753Z,4.90
2018-04-19T23:25:59.359Z,4.03
2018-04-19T23:28:27.013Z,4.70
2018-04-19T23:30:54.625Z,3.83
2018-04-19T23:33:22.335Z,3.97
2018-04-19T23:35:49.985Z,3.63
2018-04-19T23:38:17.637Z,3.47
2018-04-19T23:40:45.149Z,3.77
2018-04-19T23:43:12.769Z,3.70
2018-04-19T23:45:40.269Z,2.77
2018-04-19T23:48:07.793Z,2.50
2018-04-19T23:50:35.293Z,2.40
2018-04-19T23:53:02.987Z,2.37
2018-04-19T23:55:30.539Z,2.40
2018-04-19T23:57:58.424Z,2.40
